sensor_id;sensor_type;location;lat;lon;timestamp;P1;durP1;ratioP1;P2;durP2;ratioP2
28192;SDS011;15473;50.840;3.396;2023-04-03T00:00:24;19.40;;;10.70;;
28192;SDS011;15473;50.840;3.396;2023-04-03T00:02:54;18.57;;;11.43;;
28192;SDS011;15473;50.840;3.396;2023-04-03T00:05:24;18.10;;;11.78;;
28192;SDS011;15473;50.840;3.396;2023-04-03T00:07:54;19.25;;;11.38;;
28192;SDS011;15473;50.840;3.396;2023-04-03T00:10:24;24.37;;;11.65;;
28192;SDS011;15473;50.840;3.396;2023-04-03T00:12:54;17.82;;;11.85;;
28192;SDS011;15473;50.840;3.396;2023-04-03T00:15:31;18.77;;;11.50;;
28192;SDS011;15473;50.840;3.396;2023-04-03T00:18:02;20.37;;;12.28;;
28192;SDS011;15473;50.840;3.396;2023-04-03T00:20:32;21.77;;;11.20;;
28192;SDS011;15473;50.840;3.396;2023-04-03T00:23:03;18.30;;;11.05;;
28192;SDS011;15473;50.840;3.396;2023-04-03T00:25:35;21.60;;;11.85;;
28192;SDS011;15473;50.840;3.396;2023-04-03T00:28:05;18.82;;;11.20;;
28192;SDS011;15473;50.840;3.396;2023-04-03T00:30:35;16.90;;;11.12;;
28192;SDS011;15473;50.840;3.396;2023-04-03T00:33:05;16.57;;;11.03;;
28192;SDS011;15473;50.840;3.396;2023-04-03T00:35:42;18.65;;;10.30;;
28192;SDS011;15473;50.840;3.396;2023-04-03T00:38:14;15.90;;;10.58;;
28192;SDS011;15473;50.840;3.396;2023-04-03T00:40:57;18.42;;;10.32;;
28192;SDS011;15473;50.840;3.396;2023-04-03T00:43:34;15.78;;;9.08;;
28192;SDS011;15473;50.840;3.396;2023-04-03T00:46:10;17.30;;;10.23;;
28192;SDS011;15473;50.840;3.396;2023-04-03T00:48:47;15.28;;;10.13;;
28192;SDS011;15473;50.840;3.396;2023-04-03T00:51:19;21.45;;;11.25;;
28192;SDS011;15473;50.840;3.396;2023-04-03T00:53:56;18.92;;;11.05;;
28192;SDS011;15473;50.840;3.396;2023-04-03T00:56:25;14.18;;;9.38;;
28192;SDS011;15473;50.840;3.396;2023-04-03T00:59:08;16.15;;;10.10;;
28192;SDS011;15473;50.840;3.396;2023-04-03T01:01:46;15.68;;;9.63;;
28192;SDS011;15473;50.840;3.396;2023-04-03T01:07:16;16.90;;;9.73;;
28192;SDS011;15473;50.840;3.396;2023-04-03T01:10:00;16.05;;;8.80;;
28192;SDS011;15473;50.840;3.396;2023-04-03T01:12:32;16.85;;;9.95;;
28192;SDS011;15473;50.840;3.396;2023-04-03T01:17:47;14.43;;;8.30;;
28192;SDS011;15473;50.840;3.396;2023-04-03T01:28:24;19.10;;;10.28;;
28192;SDS011;15473;50.840;3.396;2023-04-03T01:33:46;17.75;;;10.28;;
28192;SDS011;15473;50.840;3.396;2023-04-03T01:36:24;18.42;;;9.93;;
28192;SDS011;15473;50.840;3.396;2023-04-03T01:38:56;17.35;;;9.28;;
28192;SDS011;15473;50.840;3.396;2023-04-03T01:41:34;22.45;;;10.15;;
28192;SDS011;15473;50.840;3.396;2023-04-03T01:44:04;16.87;;;9.55;;
28192;SDS011;15473;50.840;3.396;2023-04-03T01:46:41;17.17;;;10.50;;
28192;SDS011;15473;50.840;3.396;2023-04-03T01:49:15;17.77;;;10.80;;
28192;SDS011;15473;50.840;3.396;2023-04-03T01:51:46;18.07;;;9.88;;
28192;SDS011;15473;50.840;3.396;2023-04-03T01:54:22;15.68;;;9.33;;
28192;SDS011;15473;50.840;3.396;2023-04-03T01:56:52;20.25;;;10.58;;
28192;SDS011;15473;50.840;3.396;2023-04-03T01:59:23;22.13;;;11.43;;
28192;SDS011;15473;50.840;3.396;2023-04-03T02:01:54;18.73;;;11.00;;
28192;SDS011;15473;50.840;3.396;2023-04-03T02:04:24;20.45;;;10.88;;
28192;SDS011;15473;50.840;3.396;2023-04-03T02:06:54;18.00;;;9.90;;
28192;SDS011;15473;50.840;3.396;2023-04-03T02:09:28;17.73;;;10.30;;
28192;SDS011;15473;50.840;3.396;2023-04-03T02:12:04;19.50;;;10.82;;
28192;SDS011;15473;50.840;3.396;2023-04-03T02:14:42;17.00;;;9.98;;
28192;SDS011;15473;50.840;3.396;2023-04-03T02:17:12;17.30;;;10.40;;
28192;SDS011;15473;50.840;3.396;2023-04-03T02:19:48;19.32;;;9.90;;
28192;SDS011;15473;50.840;3.396;2023-04-03T02:22:18;16.67;;;9.78;;
28192;SDS011;15473;50.840;3.396;2023-04-03T02:24:55;21.23;;;10.65;;
28192;SDS011;15473;50.840;3.396;2023-04-03T02:27:29;19.15;;;11.70;;
28192;SDS011;15473;50.840;3.396;2023-04-03T02:30:00;16.90;;;10.40;;
28192;SDS011;15473;50.840;3.396;2023-04-03T02:32:36;18.57;;;10.18;;
28192;SDS011;15473;50.840;3.396;2023-04-03T02:35:06;18.35;;;10.45;;
28192;SDS011;15473;50.840;3.396;2023-04-03T02:37:43;19.17;;;10.25;;
28192;SDS011;15473;50.840;3.396;2023-04-03T02:40:13;17.23;;;10.08;;
28192;SDS011;15473;50.840;3.396;2023-04-03T02:42:43;14.63;;;10.05;;
28192;SDS011;15473;50.840;3.396;2023-04-03T02:45:15;19.17;;;10.68;;
28192;SDS011;15473;50.840;3.396;2023-04-03T02:47:45;21.60;;;10.25;;
28192;SDS011;15473;50.840;3.396;2023-04-03T02:50:21;20.95;;;11.20;;
28192;SDS011;15473;50.840;3.396;2023-04-03T02:52:51;17.95;;;10.00;;
28192;SDS011;15473;50.840;3.396;2023-04-03T02:55:23;20.35;;;10.80;;
28192;SDS011;15473;50.840;3.396;2023-04-03T02:57:53;19.70;;;10.48;;
28192;SDS011;15473;50.840;3.396;2023-04-03T03:03:12;17.57;;;10.75;;
28192;SDS011;15473;50.840;3.396;2023-04-03T03:05:43;17.27;;;9.78;;
28192;SDS011;15473;50.840;3.396;2023-04-03T03:08:13;15.70;;;9.20;;
28192;SDS011;15473;50.840;3.396;2023-04-03T03:10:44;18.15;;;10.43;;
28192;SDS011;15473;50.840;3.396;2023-04-03T03:13:21;17.27;;;10.00;;
28192;SDS011;15473;50.840;3.396;2023-04-03T03:15:51;16.05;;;9.98;;
28192;SDS011;15473;50.840;3.396;2023-04-03T03:18:23;15.45;;;9.45;;
28192;SDS011;15473;50.840;3.396;2023-04-03T03:20:54;19.12;;;9.65;;
28192;SDS011;15473;50.840;3.396;2023-04-03T03:23:26;21.40;;;10.18;;
28192;SDS011;15473;50.840;3.396;2023-04-03T03:25:59;17.20;;;10.45;;
28192;SDS011;15473;50.840;3.396;2023-04-03T03:28:49;16.60;;;9.23;;
28192;SDS011;15473;50.840;3.396;2023-04-03T03:31:19;13.22;;;8.75;;
28192;SDS011;15473;50.840;3.396;2023-04-03T03:33:55;22.27;;;9.63;;
28192;SDS011;15473;50.840;3.396;2023-04-03T03:36:25;18.98;;;9.88;;
28192;SDS011;15473;50.840;3.396;2023-04-03T03:38:55;16.52;;;8.73;;
28192;SDS011;15473;50.840;3.396;2023-04-03T03:41:30;16.93;;;9.95;;
28192;SDS011;15473;50.840;3.396;2023-04-03T03:44:00;16.23;;;10.35;;
28192;SDS011;15473;50.840;3.396;2023-04-03T03:46:30;12.75;;;9.03;;
28192;SDS011;15473;50.840;3.396;2023-04-03T03:49:00;15.23;;;9.23;;
28192;SDS011;15473;50.840;3.396;2023-04-03T03:51:34;14.40;;;8.73;;
28192;SDS011;15473;50.840;3.396;2023-04-03T03:54:06;17.27;;;9.65;;
28192;SDS011;15473;50.840;3.396;2023-04-03T03:56:36;15.98;;;9.38;;
28192;SDS011;15473;50.840;3.396;2023-04-03T03:59:10;18.60;;;10.30;;
28192;SDS011;15473;50.840;3.396;2023-04-03T04:01:44;17.95;;;9.25;;
28192;SDS011;15473;50.840;3.396;2023-04-03T04:04:15;14.00;;;9.33;;
28192;SDS011;15473;50.840;3.396;2023-04-03T04:06:45;17.02;;;9.25;;
28192;SDS011;15473;50.840;3.396;2023-04-03T04:09:15;18.67;;;10.82;;
28192;SDS011;15473;50.840;3.396;2023-04-03T04:11:47;13.43;;;8.63;;
28192;SDS011;15473;50.840;3.396;2023-04-03T04:14:24;15.18;;;9.35;;
28192;SDS011;15473;50.840;3.396;2023-04-03T04:16:54;17.12;;;9.48;;
28192;SDS011;15473;50.840;3.396;2023-04-03T04:19:24;14.05;;;8.58;;
28192;SDS011;15473;50.840;3.396;2023-04-03T04:21:54;13.03;;;8.18;;
28192;SDS011;15473;50.840;3.396;2023-04-03T04:24:31;15.40;;;8.58;;
28192;SDS011;15473;50.840;3.396;2023-04-03T04:27:01;11.65;;;7.53;;
28192;SDS011;15473;50.840;3.396;2023-04-03T04:29:44;15.32;;;8.88;;
28192;SDS011;15473;50.840;3.396;2023-04-03T04:32:14;13.53;;;8.33;;
28192;SDS011;15473;50.840;3.396;2023-04-03T04:34:44;10.88;;;6.85;;
28192;SDS011;15473;50.840;3.396;2023-04-03T04:37:21;13.32;;;7.80;;
28192;SDS011;15473;50.840;3.396;2023-04-03T04:39:58;12.00;;;7.28;;
28192;SDS011;15473;50.840;3.396;2023-04-03T04:42:30;15.43;;;7.92;;
28192;SDS011;15473;50.840;3.396;2023-04-03T04:45:01;13.22;;;8.20;;
28192;SDS011;15473;50.840;3.396;2023-04-03T04:47:31;14.47;;;7.37;;
28192;SDS011;15473;50.840;3.396;2023-04-03T04:50:04;11.20;;;7.33;;
28192;SDS011;15473;50.840;3.396;2023-04-03T04:52:40;14.28;;;7.47;;
28192;SDS011;15473;50.840;3.396;2023-04-03T04:55:16;11.43;;;7.22;;
28192;SDS011;15473;50.840;3.396;2023-04-03T04:57:46;14.43;;;8.05;;
28192;SDS011;15473;50.840;3.396;2023-04-03T05:00:18;11.03;;;7.78;;
28192;SDS011;15473;50.840;3.396;2023-04-03T05:02:55;12.65;;;7.42;;
28192;SDS011;15473;50.840;3.396;2023-04-03T05:05:25;11.22;;;7.20;;
28192;SDS011;15473;50.840;3.396;2023-04-03T05:07:56;10.88;;;7.00;;
28192;SDS011;15473;50.840;3.396;2023-04-03T05:10:32;12.53;;;7.15;;
28192;SDS011;15473;50.840;3.396;2023-04-03T05:13:03;13.18;;;7.15;;
28192;SDS011;15473;50.840;3.396;2023-04-03T05:15:33;9.55;;;6.37;;
28192;SDS011;15473;50.840;3.396;2023-04-03T05:18:03;10.58;;;7.15;;
28192;SDS011;15473;50.840;3.396;2023-04-03T05:20:33;9.50;;;6.55;;
28192;SDS011;15473;50.840;3.396;2023-04-03T05:23:05;10.85;;;6.42;;
28192;SDS011;15473;50.840;3.396;2023-04-03T05:25:37;10.40;;;7.08;;
28192;SDS011;15473;50.840;3.396;2023-04-03T05:28:07;12.03;;;7.45;;
28192;SDS011;15473;50.840;3.396;2023-04-03T05:30:38;15.45;;;6.95;;
28192;SDS011;15473;50.840;3.396;2023-04-03T05:33:08;11.15;;;6.40;;
28192;SDS011;15473;50.840;3.396;2023-04-03T05:35:42;10.25;;;6.45;;
28192;SDS011;15473;50.840;3.396;2023-04-03T05:38:13;10.55;;;6.17;;
28192;SDS011;15473;50.840;3.396;2023-04-03T05:43:34;9.55;;;6.58;;
28192;SDS011;15473;50.840;3.396;2023-04-03T05:46:12;9.40;;;6.28;;
28192;SDS011;15473;50.840;3.396;2023-04-03T05:48:47;9.18;;;6.05;;
28192;SDS011;15473;50.840;3.396;2023-04-03T05:51:19;15.55;;;7.87;;
28192;SDS011;15473;50.840;3.396;2023-04-03T05:53:53;13.48;;;6.70;;
28192;SDS011;15473;50.840;3.396;2023-04-03T05:56:47;9.35;;;6.33;;
28192;SDS011;15473;50.840;3.396;2023-04-03T05:59:17;11.18;;;6.37;;
28192;SDS011;15473;50.840;3.396;2023-04-03T06:01:54;11.12;;;6.95;;
28192;SDS011;15473;50.840;3.396;2023-04-03T06:04:24;11.35;;;7.05;;
28192;SDS011;15473;50.840;3.396;2023-04-03T06:06:56;9.50;;;6.60;;
28192;SDS011;15473;50.840;3.396;2023-04-03T06:09:30;9.38;;;6.40;;
28192;SDS011;15473;50.840;3.396;2023-04-03T06:12:01;9.68;;;6.17;;
28192;SDS011;15473;50.840;3.396;2023-04-03T06:14:38;12.70;;;6.22;;
28192;SDS011;15473;50.840;3.396;2023-04-03T06:17:08;9.80;;;6.00;;
28192;SDS011;15473;50.840;3.396;2023-04-03T06:19:47;11.78;;;6.80;;
28192;SDS011;15473;50.840;3.396;2023-04-03T06:22:24;10.58;;;6.30;;
28192;SDS011;15473;50.840;3.396;2023-04-03T06:24:54;9.93;;;6.45;;
28192;SDS011;15473;50.840;3.396;2023-04-03T06:27:31;11.75;;;7.03;;
28192;SDS011;15473;50.840;3.396;2023-04-03T06:30:01;7.58;;;6.15;;
28192;SDS011;15473;50.840;3.396;2023-04-03T06:35:20;10.75;;;6.10;;
28192;SDS011;15473;50.840;3.396;2023-04-03T06:38:04;13.70;;;6.20;;
28192;SDS011;15473;50.840;3.396;2023-04-03T06:40:36;11.15;;;6.53;;
28192;SDS011;15473;50.840;3.396;2023-04-03T06:43:06;10.82;;;6.53;;
28192;SDS011;15473;50.840;3.396;2023-04-03T06:45:36;12.70;;;7.33;;
28192;SDS011;15473;50.840;3.396;2023-04-03T06:48:13;8.78;;;6.70;;
28192;SDS011;15473;50.840;3.396;2023-04-03T06:50:43;13.75;;;7.62;;
28192;SDS011;15473;50.840;3.396;2023-04-03T06:53:13;14.83;;;7.28;;
28192;SDS011;15473;50.840;3.396;2023-04-03T06:55:50;8.75;;;6.60;;
28192;SDS011;15473;50.840;3.396;2023-04-03T06:58:20;11.00;;;6.60;;
28192;SDS011;15473;50.840;3.396;2023-04-03T07:00:53;9.85;;;6.17;;
28192;SDS011;15473;50.840;3.396;2023-04-03T07:03:24;11.22;;;7.28;;
28192;SDS011;15473;50.840;3.396;2023-04-03T07:06:00;12.53;;;6.70;;
28192;SDS011;15473;50.840;3.396;2023-04-03T07:08:31;11.95;;;6.75;;
28192;SDS011;15473;50.840;3.396;2023-04-03T07:11:01;10.60;;;6.95;;
28192;SDS011;15473;50.840;3.396;2023-04-03T07:13:39;12.75;;;6.30;;
28192;SDS011;15473;50.840;3.396;2023-04-03T07:16:09;9.35;;;6.83;;
28192;SDS011;15473;50.840;3.396;2023-04-03T07:18:48;11.05;;;6.78;;
28192;SDS011;15473;50.840;3.396;2023-04-03T07:21:19;11.50;;;6.87;;
28192;SDS011;15473;50.840;3.396;2023-04-03T07:23:57;11.35;;;6.67;;
28192;SDS011;15473;50.840;3.396;2023-04-03T07:26:27;13.68;;;6.53;;
28192;SDS011;15473;50.840;3.396;2023-04-03T07:29:03;8.48;;;6.30;;
28192;SDS011;15473;50.840;3.396;2023-04-03T07:31:34;10.28;;;6.47;;
28192;SDS011;15473;50.840;3.396;2023-04-03T07:34:17;8.73;;;6.45;;
28192;SDS011;15473;50.840;3.396;2023-04-03T07:36:54;9.20;;;6.42;;
28192;SDS011;15473;50.840;3.396;2023-04-03T07:39:31;7.37;;;5.87;;
28192;SDS011;15473;50.840;3.396;2023-04-03T07:42:07;8.85;;;6.22;;
28192;SDS011;15473;50.840;3.396;2023-04-03T07:44:44;8.80;;;6.33;;
28192;SDS011;15473;50.840;3.396;2023-04-03T07:47:17;8.08;;;6.40;;
28192;SDS011;15473;50.840;3.396;2023-04-03T07:50:01;8.10;;;5.97;;
28192;SDS011;15473;50.840;3.396;2023-04-03T07:52:37;8.63;;;6.62;;
28192;SDS011;15473;50.840;3.396;2023-04-03T07:55:07;10.43;;;6.60;;
28192;SDS011;15473;50.840;3.396;2023-04-03T07:57:44;11.18;;;6.12;;
28192;SDS011;15473;50.840;3.396;2023-04-03T08:00:15;11.93;;;5.97;;
28192;SDS011;15473;50.840;3.396;2023-04-03T08:02:45;10.25;;;5.75;;
28192;SDS011;15473;50.840;3.396;2023-04-03T08:05:19;10.78;;;5.90;;
28192;SDS011;15473;50.840;3.396;2023-04-03T08:07:54;11.12;;;6.10;;
28192;SDS011;15473;50.840;3.396;2023-04-03T08:10:31;9.35;;;6.20;;
28192;SDS011;15473;50.840;3.396;2023-04-03T08:13:06;9.63;;;5.75;;
28192;SDS011;15473;50.840;3.396;2023-04-03T08:15:37;6.87;;;5.37;;
28192;SDS011;15473;50.840;3.396;2023-04-03T08:18:11;8.78;;;5.70;;
28192;SDS011;15473;50.840;3.396;2023-04-03T08:20:41;6.12;;;5.37;;
28192;SDS011;15473;50.840;3.396;2023-04-03T08:23:12;7.35;;;5.67;;
28192;SDS011;15473;50.840;3.396;2023-04-03T08:25:45;6.95;;;5.08;;
28192;SDS011;15473;50.840;3.396;2023-04-03T08:28:15;9.78;;;6.40;;
28192;SDS011;15473;50.840;3.396;2023-04-03T08:30:45;5.30;;;4.80;;
28192;SDS011;15473;50.840;3.396;2023-04-03T08:33:21;7.33;;;5.15;;
28192;SDS011;15473;50.840;3.396;2023-04-03T08:35:51;7.17;;;4.50;;
28192;SDS011;15473;50.840;3.396;2023-04-03T08:38:23;9.35;;;5.67;;
28192;SDS011;15473;50.840;3.396;2023-04-03T08:41:02;7.00;;;5.45;;
28192;SDS011;15473;50.840;3.396;2023-04-03T08:46:51;7.90;;;6.25;;
28192;SDS011;15473;50.840;3.396;2023-04-03T08:49:33;6.72;;;5.17;;
28192;SDS011;15473;50.840;3.396;2023-04-03T08:52:21;6.50;;;4.87;;
28192;SDS011;15473;50.840;3.396;2023-04-03T08:54:59;7.63;;;5.33;;
28192;SDS011;15473;50.840;3.396;2023-04-03T08:57:44;6.75;;;5.33;;
28192;SDS011;15473;50.840;3.396;2023-04-03T09:02:48;9.38;;;4.97;;
28192;SDS011;15473;50.840;3.396;2023-04-03T09:08:10;6.12;;;4.78;;
28192;SDS011;15473;50.840;3.396;2023-04-03T09:12:15;7.42;;;5.28;;
28192;SDS011;15473;50.840;3.396;2023-04-03T09:14:30;5.12;;;4.60;;
28192;SDS011;15473;50.840;3.396;2023-04-03T09:20:17;6.03;;;4.53;;
28192;SDS011;15473;50.840;3.396;2023-04-03T09:22:52;8.10;;;4.20;;
28192;SDS011;15473;50.840;3.396;2023-04-03T09:25:33;6.28;;;3.95;;
28192;SDS011;15473;50.840;3.396;2023-04-03T09:28:06;5.22;;;4.42;;
28192;SDS011;15473;50.840;3.396;2023-04-03T09:30:44;6.95;;;3.70;;
28192;SDS011;15473;50.840;3.396;2023-04-03T09:33:14;5.30;;;3.58;;
28192;SDS011;15473;50.840;3.396;2023-04-03T09:35:45;4.00;;;3.02;;
28192;SDS011;15473;50.840;3.396;2023-04-03T09:38:36;3.10;;;2.75;;
28192;SDS011;15473;50.840;3.396;2023-04-03T09:41:12;4.67;;;2.65;;
28192;SDS011;15473;50.840;3.396;2023-04-03T09:43:40;6.12;;;2.58;;
28192;SDS011;15473;50.840;3.396;2023-04-03T09:46:33;4.60;;;2.70;;
28192;SDS011;15473;50.840;3.396;2023-04-03T09:49:03;4.30;;;2.47;;
28192;SDS011;15473;50.840;3.396;2023-04-03T09:51:38;3.35;;;2.20;;
28192;SDS011;15473;50.840;3.396;2023-04-03T09:57:12;2.10;;;1.90;;
28192;SDS011;15473;50.840;3.396;2023-04-03T09:59:47;2.37;;;2.15;;
28192;SDS011;15473;50.840;3.396;2023-04-03T10:02:27;4.90;;;1.87;;
28192;SDS011;15473;50.840;3.396;2023-04-03T10:05:02;3.72;;;2.10;;
28192;SDS011;15473;50.840;3.396;2023-04-03T10:07:34;3.37;;;1.70;;
28192;SDS011;15473;50.840;3.396;2023-04-03T10:10:17;3.27;;;2.10;;
28192;SDS011;15473;50.840;3.396;2023-04-03T10:13:06;2.08;;;1.60;;
28192;SDS011;15473;50.840;3.396;2023-04-03T10:15:44;2.08;;;1.40;;
28192;SDS011;15473;50.840;3.396;2023-04-03T10:21:15;2.52;;;1.80;;
28192;SDS011;15473;50.840;3.396;2023-04-03T10:23:59;3.37;;;1.80;;
28192;SDS011;15473;50.840;3.396;2023-04-03T10:26:45;2.50;;;1.72;;
28192;SDS011;15473;50.840;3.396;2023-04-03T10:32:20;3.90;;;1.98;;
28192;SDS011;15473;50.840;3.396;2023-04-03T10:41:16;1.75;;;1.62;;
28192;SDS011;15473;50.840;3.396;2023-04-03T10:47:12;2.90;;;2.20;;
28192;SDS011;15473;50.840;3.396;2023-04-03T10:52:22;3.10;;;2.00;;
28192;SDS011;15473;50.840;3.396;2023-04-03T10:55:01;2.58;;;1.82;;
28192;SDS011;15473;50.840;3.396;2023-04-03T10:57:33;4.45;;;2.10;;
28192;SDS011;15473;50.840;3.396;2023-04-03T11:00:05;3.52;;;2.02;;
28192;SDS011;15473;50.840;3.396;2023-04-03T11:02:40;3.40;;;2.05;;
28192;SDS011;15473;50.840;3.396;2023-04-03T11:05:25;2.45;;;1.87;;
28192;SDS011;15473;50.840;3.396;2023-04-03T11:07:56;3.47;;;1.90;;
28192;SDS011;15473;50.840;3.396;2023-04-03T11:10:44;5.78;;;2.10;;
28192;SDS011;15473;50.840;3.396;2023-04-03T11:13:49;2.25;;;1.90;;
28192;SDS011;15473;50.840;3.396;2023-04-03T11:16:23;3.40;;;2.00;;
28192;SDS011;15473;50.840;3.396;2023-04-03T11:18:54;3.17;;;2.05;;
28192;SDS011;15473;50.840;3.396;2023-04-03T11:21:34;4.47;;;1.70;;
28192;SDS011;15473;50.840;3.396;2023-04-03T11:24:15;6.90;;;1.87;;
28192;SDS011;15473;50.840;3.396;2023-04-03T11:26:47;2.12;;;1.70;;
28192;SDS011;15473;50.840;3.396;2023-04-03T11:29:22;2.35;;;1.72;;
28192;SDS011;15473;50.840;3.396;2023-04-03T11:34:57;4.75;;;2.25;;
28192;SDS011;15473;50.840;3.396;2023-04-03T11:45:40;5.87;;;2.10;;
28192;SDS011;15473;50.840;3.396;2023-04-03T11:51:37;2.00;;;1.55;;
28192;SDS011;15473;50.840;3.396;2023-04-03T11:53:48;4.75;;;2.22;;
28192;SDS011;15473;50.840;3.396;2023-04-03T12:01:53;5.05;;;1.98;;
28192;SDS011;15473;50.840;3.396;2023-04-03T12:04:25;4.28;;;1.70;;
28192;SDS011;15473;50.840;3.396;2023-04-03T12:07:14;2.33;;;1.57;;
28192;SDS011;15473;50.840;3.396;2023-04-03T12:12:24;2.60;;;1.50;;
28192;SDS011;15473;50.840;3.396;2023-04-03T12:14:55;3.02;;;1.60;;
28192;SDS011;15473;50.840;3.396;2023-04-03T12:17:27;2.12;;;1.60;;
28192;SDS011;15473;50.840;3.396;2023-04-03T12:19:58;3.47;;;1.80;;
28192;SDS011;15473;50.840;3.396;2023-04-03T12:22:28;3.08;;;2.02;;
28192;SDS011;15473;50.840;3.396;2023-04-03T12:25:40;3.33;;;1.85;;
28192;SDS011;15473;50.840;3.396;2023-04-03T12:27:40;4.22;;;1.85;;
28192;SDS011;15473;50.840;3.396;2023-04-03T12:30:25;2.33;;;1.50;;
28192;SDS011;15473;50.840;3.396;2023-04-03T12:33:02;2.67;;;1.62;;
28192;SDS011;15473;50.840;3.396;2023-04-03T12:36:06;2.90;;;1.55;;
28192;SDS011;15473;50.840;3.396;2023-04-03T12:38:25;3.20;;;1.67;;
28192;SDS011;15473;50.840;3.396;2023-04-03T12:41:08;4.75;;;1.52;;
28192;SDS011;15473;50.840;3.396;2023-04-03T12:44:04;3.20;;;1.27;;
28192;SDS011;15473;50.840;3.396;2023-04-03T12:46:57;3.52;;;1.67;;
28192;SDS011;15473;50.840;3.396;2023-04-03T12:52:37;5.83;;;1.60;;
28192;SDS011;15473;50.840;3.396;2023-04-03T12:54:49;2.65;;;1.60;;
28192;SDS011;15473;50.840;3.396;2023-04-03T12:57:30;2.77;;;1.60;;
28192;SDS011;15473;50.840;3.396;2023-04-03T12:59:55;3.98;;;1.75;;
28192;SDS011;15473;50.840;3.396;2023-04-03T13:02:29;2.27;;;1.75;;
28192;SDS011;15473;50.840;3.396;2023-04-03T13:05:09;1.77;;;1.65;;
28192;SDS011;15473;50.840;3.396;2023-04-03T13:07:41;4.58;;;1.65;;
28192;SDS011;15473;50.840;3.396;2023-04-03T13:13:06;2.87;;;1.40;;
28192;SDS011;15473;50.840;3.396;2023-04-03T13:15:43;3.50;;;1.72;;
28192;SDS011;15473;50.840;3.396;2023-04-03T13:18:27;7.20;;;2.10;;
28192;SDS011;15473;50.840;3.396;2023-04-03T13:21:06;3.15;;;1.57;;
28192;SDS011;15473;50.840;3.396;2023-04-03T13:23:47;3.10;;;1.57;;
28192;SDS011;15473;50.840;3.396;2023-04-03T13:26:19;2.25;;;1.32;;
28192;SDS011;15473;50.840;3.396;2023-04-03T13:28:51;2.27;;;1.22;;
28192;SDS011;15473;50.840;3.396;2023-04-03T13:31:28;2.10;;;1.37;;
28192;SDS011;15473;50.840;3.396;2023-04-03T13:36:46;1.57;;;1.40;;
28192;SDS011;15473;50.840;3.396;2023-04-03T13:39:39;5.25;;;1.57;;
28192;SDS011;15473;50.840;3.396;2023-04-03T13:42:22;2.52;;;1.60;;
28192;SDS011;15473;50.840;3.396;2023-04-03T13:47:48;6.05;;;1.67;;
28192;SDS011;15473;50.840;3.396;2023-04-03T13:50:22;3.95;;;1.65;;
28192;SDS011;15473;50.840;3.396;2023-04-03T13:53:02;3.08;;;1.47;;
28192;SDS011;15473;50.840;3.396;2023-04-03T13:55:34;3.17;;;1.75;;
28192;SDS011;15473;50.840;3.396;2023-04-03T14:01:17;2.17;;;1.70;;
28192;SDS011;15473;50.840;3.396;2023-04-03T14:03:59;4.08;;;2.08;;
28192;SDS011;15473;50.840;3.396;2023-04-03T14:06:37;4.70;;;1.85;;
28192;SDS011;15473;50.840;3.396;2023-04-03T14:09:07;2.87;;;1.90;;
28192;SDS011;15473;50.840;3.396;2023-04-03T14:11:37;4.20;;;1.80;;
28192;SDS011;15473;50.840;3.396;2023-04-03T14:14:13;2.72;;;1.80;;
28192;SDS011;15473;50.840;3.396;2023-04-03T14:16:46;4.15;;;2.10;;
28192;SDS011;15473;50.840;3.396;2023-04-03T14:19:24;4.60;;;2.10;;
28192;SDS011;15473;50.840;3.396;2023-04-03T14:22:11;1.35;;;1.25;;
28192;SDS011;15473;50.840;3.396;2023-04-03T14:24:50;3.22;;;1.42;;
28192;SDS011;15473;50.840;3.396;2023-04-03T14:27:22;1.72;;;1.40;;
28192;SDS011;15473;50.840;3.396;2023-04-03T14:29:55;1.87;;;1.50;;
28192;SDS011;15473;50.840;3.396;2023-04-03T14:32:26;2.75;;;1.62;;
28192;SDS011;15473;50.840;3.396;2023-04-03T14:34:56;3.65;;;1.32;;
28192;SDS011;15473;50.840;3.396;2023-04-03T14:37:28;3.92;;;1.32;;
28192;SDS011;15473;50.840;3.396;2023-04-03T14:39:59;5.37;;;1.65;;
28192;SDS011;15473;50.840;3.396;2023-04-03T14:42:33;3.52;;;1.60;;
28192;SDS011;15473;50.840;3.396;2023-04-03T14:45:06;3.52;;;1.50;;
28192;SDS011;15473;50.840;3.396;2023-04-03T14:47:40;2.00;;;1.20;;
28192;SDS011;15473;50.840;3.396;2023-04-03T14:50:20;3.22;;;1.40;;
28192;SDS011;15473;50.840;3.396;2023-04-03T14:52:53;1.65;;;1.20;;
28192;SDS011;15473;50.840;3.396;2023-04-03T14:55:25;3.27;;;1.40;;
28192;SDS011;15473;50.840;3.396;2023-04-03T14:57:55;2.65;;;1.35;;
28192;SDS011;15473;50.840;3.396;2023-04-03T15:00:26;4.83;;;1.45;;
28192;SDS011;15473;50.840;3.396;2023-04-03T15:02:56;3.02;;;1.42;;
28192;SDS011;15473;50.840;3.396;2023-04-03T15:05:26;1.50;;;1.20;;
28192;SDS011;15473;50.840;3.396;2023-04-03T15:08:00;1.32;;;1.07;;
28192;SDS011;15473;50.840;3.396;2023-04-03T15:10:30;2.27;;;1.20;;
28192;SDS011;15473;50.840;3.396;2023-04-03T15:13:01;2.95;;;1.37;;
28192;SDS011;15473;50.840;3.396;2023-04-03T15:15:31;3.17;;;1.05;;
28192;SDS011;15473;50.840;3.396;2023-04-03T15:18:04;3.42;;;1.35;;
28192;SDS011;15473;50.840;3.396;2023-04-03T15:20:42;1.72;;;1.07;;
28192;SDS011;15473;50.840;3.396;2023-04-03T15:23:32;2.17;;;1.25;;
28192;SDS011;15473;50.840;3.396;2023-04-03T15:26:03;4.53;;;1.27;;
28192;SDS011;15473;50.840;3.396;2023-04-03T15:28:35;2.25;;;1.40;;
28192;SDS011;15473;50.840;3.396;2023-04-03T15:31:07;3.47;;;1.42;;
28192;SDS011;15473;50.840;3.396;2023-04-03T15:33:37;5.30;;;1.12;;
28192;SDS011;15473;50.840;3.396;2023-04-03T15:36:08;2.92;;;1.60;;
28192;SDS011;15473;50.840;3.396;2023-04-03T15:38:38;1.92;;;1.57;;
28192;SDS011;15473;50.840;3.396;2023-04-03T15:41:10;2.47;;;1.27;;
28192;SDS011;15473;50.840;3.396;2023-04-03T15:43:42;5.15;;;1.40;;
28192;SDS011;15473;50.840;3.396;2023-04-03T15:49:02;1.60;;;1.25;;
28192;SDS011;15473;50.840;3.396;2023-04-03T15:51:33;3.22;;;1.17;;
28192;SDS011;15473;50.840;3.396;2023-04-03T15:54:04;2.92;;;1.45;;
28192;SDS011;15473;50.840;3.396;2023-04-03T15:56:40;1.62;;;1.32;;
28192;SDS011;15473;50.840;3.396;2023-04-03T15:59:10;2.37;;;1.12;;
28192;SDS011;15473;50.840;3.396;2023-04-03T16:01:47;1.25;;;1.15;;
28192;SDS011;15473;50.840;3.396;2023-04-03T16:04:18;1.47;;;1.10;;
28192;SDS011;15473;50.840;3.396;2023-04-03T16:09:47;2.33;;;1.35;;
28192;SDS011;15473;50.840;3.396;2023-04-03T16:12:18;1.65;;;1.10;;
28192;SDS011;15473;50.840;3.396;2023-04-03T16:14:48;1.27;;;1.05;;
28192;SDS011;15473;50.840;3.396;2023-04-03T16:17:19;2.25;;;1.52;;
28192;SDS011;15473;50.840;3.396;2023-04-03T16:19:49;2.02;;;1.22;;
28192;SDS011;15473;50.840;3.396;2023-04-03T16:22:27;1.77;;;1.40;;
28192;SDS011;15473;50.840;3.396;2023-04-03T16:24:58;1.57;;;1.05;;
28192;SDS011;15473;50.840;3.396;2023-04-03T16:27:35;1.98;;;1.15;;
28192;SDS011;15473;50.840;3.396;2023-04-03T16:30:12;1.20;;;1.10;;
28192;SDS011;15473;50.840;3.396;2023-04-03T16:32:43;1.80;;;1.40;;
28192;SDS011;15473;50.840;3.396;2023-04-03T16:35:13;2.47;;;1.42;;
28192;SDS011;15473;50.840;3.396;2023-04-03T16:37:43;1.45;;;1.17;;
28192;SDS011;15473;50.840;3.396;2023-04-03T16:40:20;1.32;;;1.22;;
28192;SDS011;15473;50.840;3.396;2023-04-03T16:42:50;2.95;;;1.45;;
28192;SDS011;15473;50.840;3.396;2023-04-03T16:45:27;2.92;;;1.50;;
28192;SDS011;15473;50.840;3.396;2023-04-03T16:47:57;5.20;;;1.17;;
28192;SDS011;15473;50.840;3.396;2023-04-03T16:50:27;1.85;;;1.25;;
28192;SDS011;15473;50.840;3.396;2023-04-03T16:52:57;1.85;;;1.12;;
28192;SDS011;15473;50.840;3.396;2023-04-03T16:55:31;1.12;;;1.00;;
28192;SDS011;15473;50.840;3.396;2023-04-03T16:58:01;2.27;;;1.15;;
28192;SDS011;15473;50.840;3.396;2023-04-03T17:00:33;3.70;;;1.15;;
28192;SDS011;15473;50.840;3.396;2023-04-03T17:03:03;1.70;;;1.20;;